Terminal Aerodrome Forecast
Issued by NWS

Home | Current Version | Previous Version | Text Only | Print | Product List | Glossary On
Versions: 1 2 3 4 5 6 7 8 9 10 11 12 13
000
FTUS43 KOAX 281120
TAFCDR
TAF
KCDR 281120Z 2812/2912 24005KT P6SM SKC
     FM281900 26013G20KT P6SM SKC
     FM290000 30015KT P6SM SCT110=

USA.gov is the U.S. government's official web portal to all federal, state and local government web resources and services.